createdAt,value
2024-05-09T00:00:52.882Z,25.10
2024-05-09T00:03:23.995Z,33.40
2024-05-09T00:05:54.569Z,22.85
2024-05-09T00:08:26.100Z,30.80
2024-05-09T00:10:56.856Z,28.50
2024-05-09T00:13:27.969Z,24.83
2024-05-09T00:15:58.846Z,27.77
2024-05-09T00:18:30.140Z,28.23
2024-05-09T00:21:01.468Z,32.97
2024-05-09T00:23:32.799Z,27.70
2024-05-09T00:26:03.543Z,28.13
2024-05-09T00:28:34.402Z,25.60
2024-05-09T00:31:05.717Z,25.67
2024-05-09T00:33:36.848Z,27.13
2024-05-09T00:36:08.894Z,29.85
2024-05-09T00:38:39.773Z,29.33
2024-05-09T00:41:10.647Z,30.20
2024-05-09T00:43:42.492Z,31.30
2024-05-09T00:46:13.326Z,30.08
2024-05-09T00:48:44.617Z,24.50
2024-05-09T00:51:15.505Z,28.23
2024-05-09T00:53:47.736Z,31.27
2024-05-09T00:56:20.700Z,21.98
2024-05-09T00:58:53.574Z,25.50
2024-05-09T01:01:25.928Z,33.13
2024-05-09T01:03:57.397Z,26.67
2024-05-09T01:06:28.210Z,31.67
2024-05-09T01:08:59.379Z,31.02
2024-05-09T01:11:39.493Z,25.40
2024-05-09T01:14:10.683Z,23.08
2024-05-09T01:16:41.778Z,23.63
2024-05-09T01:19:25.360Z,26.90
2024-05-09T01:21:56.419Z,24.35
2024-05-09T01:24:27.359Z,26.02
2024-05-09T01:26:58.288Z,30.55
2024-05-09T01:29:29.241Z,25.38
2024-05-09T01:32:01.443Z,25.67
2024-05-09T01:34:32.776Z,25.07
2024-05-09T01:37:03.749Z,30.58
2024-05-09T01:39:34.577Z,26.73
2024-05-09T01:42:05.598Z,27.40
2024-05-09T01:44:36.732Z,27.88
2024-05-09T01:47:07.585Z,27.23
2024-05-09T01:49:39.605Z,25.30
2024-05-09T01:52:10.435Z,33.60
2024-05-09T01:54:41.965Z,29.15
2024-05-09T01:57:12.906Z,23.95
2024-05-09T01:59:43.753Z,24.45
2024-05-09T02:02:15.586Z,23.10
2024-05-09T02:04:49.750Z,21.83
2024-05-09T02:07:20.724Z,30.30
2024-05-09T02:09:55.197Z,33.50
2024-05-09T02:12:25.954Z,28.35
2024-05-09T02:14:57.276Z,29.85
2024-05-09T02:17:31.075Z,27.02
2024-05-09T02:20:02.738Z,19.10
2024-05-09T02:22:33.425Z,23.95
2024-05-09T02:25:04.589Z,33.13
2024-05-09T02:27:35.197Z,28.83
2024-05-09T02:30:15.130Z,29.85
2024-05-09T02:32:53.435Z,23.30
2024-05-09T02:35:24.813Z,25.05
2024-05-09T02:37:55.599Z,20.30
2024-05-09T02:40:35.497Z,19.88
2024-05-09T02:43:11.177Z,31.63
2024-05-09T02:45:43.678Z,30.13
2024-05-09T02:48:14.854Z,31.63
2024-05-09T02:50:46.345Z,22.23
2024-05-09T02:53:17.497Z,24.38
2024-05-09T02:55:49.040Z,22.17
2024-05-09T02:58:19.676Z,23.88
2024-05-09T03:00:51.498Z,24.23
2024-05-09T03:03:22.534Z,24.50
2024-05-09T03:05:53.949Z,26.55
2024-05-09T03:08:25.056Z,30.42
2024-05-09T03:10:56.248Z,26.20
2024-05-09T03:13:26.774Z,22.73
2024-05-09T03:15:57.883Z,24.90
2024-05-09T03:18:28.855Z,27.98
2024-05-09T03:20:59.788Z,24.75
2024-05-09T03:23:30.669Z,25.08
2024-05-09T03:26:01.729Z,25.33
2024-05-09T03:28:32.570Z,26.20
2024-05-09T03:31:03.341Z,35.85
2024-05-09T03:33:34.564Z,25.05
2024-05-09T03:36:09.762Z,41.42
2024-05-09T03:38:42.561Z,18.75
2024-05-09T03:41:14.735Z,26.10
2024-05-09T03:43:46.940Z,26.75
2024-05-09T03:46:17.735Z,18.92
2024-05-09T03:48:49.296Z,24.45
2024-05-09T03:51:20.063Z,26.48
2024-05-09T03:53:51.144Z,25.10
2024-05-09T03:56:22.088Z,18.75
2024-05-09T03:58:53.462Z,25.17
2024-05-09T04:01:27.151Z,24.98
2024-05-09T04:03:58.849Z,32.10
2024-05-09T04:06:29.705Z,26.98
2024-05-09T04:09:00.752Z,22.20
2024-05-09T04:11:31.819Z,28.88
2024-05-09T04:14:03.348Z,28.73
2024-05-09T04:16:34.166Z,19.95
2024-05-09T04:19:05.525Z,27.55
2024-05-09T04:21:36.377Z,24.92
2024-05-09T04:24:07.696Z,31.77
2024-05-09T04:26:38.545Z,32.95
2024-05-09T04:29:09.770Z,28.27
2024-05-09T04:31:40.775Z,26.05
2024-05-09T04:34:12.341Z,26.40
2024-05-09T04:36:44.480Z,21.40
2024-05-09T04:39:16.016Z,32.83
2024-05-09T04:41:46.800Z,25.27
2024-05-09T04:44:17.886Z,28.77
2024-05-09T04:46:51.008Z,23.45
2024-05-09T04:49:24.923Z,29.23
2024-05-09T04:51:55.969Z,33.08
2024-05-09T04:54:34.206Z,20.92
2024-05-09T04:57:07.430Z,24.55
2024-05-09T04:59:38.545Z,30.80
2024-05-09T05:02:10.287Z,34.80
2024-05-09T05:04:41.339Z,26.55
2024-05-09T05:07:12.916Z,25.67
2024-05-09T05:09:43.749Z,25.63
2024-05-09T05:12:33.120Z,29.90
2024-05-09T05:15:04.011Z,25.73
2024-05-09T05:17:35.982Z,29.60
2024-05-09T05:20:08.551Z,29.83
2024-05-09T05:22:39.767Z,24.73
2024-05-09T05:25:10.602Z,28.88
2024-05-09T05:27:42.337Z,26.55
2024-05-09T05:30:21.040Z,32.67
2024-05-09T05:32:56.582Z,29.05
2024-05-09T05:35:28.580Z,25.63
2024-05-09T05:38:00.068Z,21.05
2024-05-09T05:40:36.777Z,20.67
2024-05-09T05:43:12.947Z,33.22
2024-05-09T05:45:44.177Z,27.92
2024-05-09T05:48:19.466Z,24.55
2024-05-09T05:50:50.675Z,23.70
2024-05-09T05:53:21.740Z,30.63
2024-05-09T05:55:53.759Z,23.30
2024-05-09T05:58:25.027Z,31.53
2024-05-09T06:00:56.154Z,28.50
2024-05-09T06:03:28.025Z,29.67
2024-05-09T06:05:59.089Z,28.90
2024-05-09T06:08:30.700Z,29.90
2024-05-09T06:11:02.002Z,29.52
2024-05-09T06:13:33.117Z,28.00
2024-05-09T06:16:06.544Z,30.55
2024-05-09T06:18:37.840Z,27.42
2024-05-09T06:21:09.412Z,23.73
2024-05-09T06:23:51.165Z,31.30
2024-05-09T06:26:22.184Z,30.02
2024-05-09T06:28:53.695Z,26.80
2024-05-09T06:31:24.481Z,29.83
2024-05-09T06:33:56.247Z,26.60
2024-05-09T06:36:27.147Z,26.80
2024-05-09T06:38:58.518Z,25.02
2024-05-09T06:41:33.246Z,21.25
2024-05-09T06:44:06.223Z,30.73
2024-05-09T06:46:42.026Z,27.50
2024-05-09T06:49:15.599Z,32.38
2024-05-09T06:51:47.744Z,24.38
2024-05-09T06:54:20.752Z,30.23
2024-05-09T06:56:51.537Z,24.77
2024-05-09T06:59:22.798Z,27.13
2024-05-09T07:01:54.655Z,27.48
2024-05-09T07:04:26.678Z,24.30
2024-05-09T07:06:58.256Z,25.67
2024-05-09T07:09:29.894Z,36.92
2024-05-09T07:12:01.451Z,28.33
2024-05-09T07:14:33.949Z,26.55
2024-05-09T07:17:05.909Z,22.95
2024-05-09T07:19:37.174Z,30.02
2024-05-09T07:22:08.281Z,22.48
2024-05-09T07:24:40.433Z,25.88
2024-05-09T07:27:15.484Z,26.25
2024-05-09T07:29:46.539Z,34.10
2024-05-09T07:32:17.771Z,19.55
2024-05-09T07:34:48.846Z,33.25
2024-05-09T07:37:19.963Z,34.03
2024-05-09T07:39:50.732Z,31.08
2024-05-09T07:42:21.903Z,23.23
2024-05-09T07:44:52.994Z,22.90
2024-05-09T07:48:49.069Z,23.48
2024-05-09T07:53:34.824Z,28.67
2024-05-09T07:55:40.849Z,21.75
2024-05-09T07:58:12.648Z,22.27
2024-05-09T08:00:43.853Z,26.10
2024-05-09T08:03:15.450Z,30.75
2024-05-09T08:05:46.737Z,20.03
2024-05-09T08:08:17.824Z,27.45
2024-05-09T08:10:48.885Z,30.83
2024-05-09T08:13:20.526Z,25.67
2024-05-09T08:15:56.388Z,25.35
2024-05-09T08:18:27.945Z,26.50
2024-05-09T08:21:03.219Z,27.15
2024-05-09T08:23:34.487Z,26.40
2024-05-09T08:26:05.275Z,25.90
2024-05-09T08:28:38.638Z,24.02
2024-05-09T08:31:09.507Z,23.85
2024-05-09T08:33:49.994Z,27.38
2024-05-09T08:36:21.834Z,28.23
2024-05-09T08:38:53.088Z,17.58
2024-05-09T08:41:24.306Z,18.13
2024-05-09T08:44:06.421Z,20.85
2024-05-09T08:46:39.180Z,20.95
2024-05-09T08:49:10.550Z,17.58
2024-05-09T08:51:41.608Z,18.50
2024-05-09T08:54:13.014Z,22.35
2024-05-09T08:56:50.384Z,17.15
2024-05-09T08:59:30.750Z,26.83
2024-05-09T09:02:02.100Z,18.85
2024-05-09T09:04:38.097Z,18.52
2024-05-09T09:07:09.977Z,25.45
2024-05-09T09:09:48.087Z,24.53
2024-05-09T09:12:19.460Z,24.73
2024-05-09T09:14:50.771Z,18.05
2024-05-09T09:17:21.771Z,28.25
2024-05-09T09:19:53.519Z,20.88
2024-05-09T09:22:24.275Z,31.77
2024-05-09T09:24:55.445Z,18.73
2024-05-09T09:27:26.533Z,18.60
2024-05-09T09:30:00.122Z,18.42
2024-05-09T09:32:31.761Z,19.95
2024-05-09T09:35:03.261Z,16.52
2024-05-09T09:37:36.627Z,17.20
2024-05-09T09:40:13.326Z,25.65
2024-05-09T09:42:46.307Z,23.70
2024-05-09T09:45:18.924Z,21.33
2024-05-09T09:47:51.200Z,16.88
2024-05-09T09:50:27.970Z,20.55
2024-05-09T09:53:07.191Z,16.42
2024-05-09T09:55:39.869Z,22.48
2024-05-09T09:58:14.304Z,33.50
2024-05-09T10:00:49.206Z,22.08
2024-05-09T10:03:20.253Z,19.85
2024-05-09T10:05:52.541Z,22.98
2024-05-09T10:08:26.205Z,23.87
2024-05-09T10:10:59.282Z,15.15
2024-05-09T10:16:12.295Z,25.65
2024-05-09T10:18:43.760Z,28.20
2024-05-09T10:21:20.491Z,18.13
2024-05-09T10:24:08.783Z,25.50
2024-05-09T10:26:41.406Z,21.48
2024-05-09T10:29:20.343Z,23.13
2024-05-09T10:31:51.380Z,18.95
2024-05-09T10:34:26.694Z,22.60
2024-05-09T10:36:58.893Z,19.10
2024-05-09T10:39:36.961Z,14.13
2024-05-09T10:42:12.850Z,23.92
2024-05-09T10:44:45.539Z,24.98
2024-05-09T10:47:17.839Z,18.38
2024-05-09T10:49:49.260Z,30.52
2024-05-09T10:52:26.799Z,22.85
2024-05-09T10:54:58.238Z,18.25
2024-05-09T10:57:40.041Z,20.75
2024-05-09T11:00:18.958Z,17.65
2024-05-09T11:02:55.828Z,19.70
2024-05-09T11:05:27.315Z,17.85
2024-05-09T11:07:58.659Z,18.25
2024-05-09T11:10:34.057Z,20.05
2024-05-09T11:13:05.861Z,16.85
2024-05-09T11:15:44.347Z,22.42
2024-05-09T11:18:30.631Z,15.85
2024-05-09T11:21:18.755Z,19.30
2024-05-09T11:23:56.046Z,18.30
2024-05-09T11:26:37.622Z,21.35
2024-05-09T11:29:09.134Z,19.52
2024-05-09T11:31:50.114Z,16.30
2024-05-09T11:34:21.781Z,21.98
2024-05-09T11:36:52.974Z,15.38
2024-05-09T11:39:24.535Z,14.35
2024-05-09T11:41:55.536Z,20.80
2024-05-09T11:44:27.155Z,12.90
2024-05-09T11:46:58.601Z,15.48
2024-05-09T11:49:30.298Z,22.60
2024-05-09T11:52:01.388Z,19.88
2024-05-09T11:54:33.538Z,21.80
2024-05-09T11:57:05.159Z,14.75
2024-05-09T11:59:37.259Z,17.65
2024-05-09T12:02:08.826Z,18.83
2024-05-09T12:04:41.040Z,17.13
2024-05-09T12:07:13.322Z,18.83
2024-05-09T12:09:45.125Z,16.83
2024-05-09T12:12:16.737Z,15.10
2024-05-09T12:14:47.942Z,17.55
2024-05-09T12:17:18.877Z,14.60
2024-05-09T12:19:50.440Z,21.00
2024-05-09T12:22:24.924Z,16.40
2024-05-09T12:24:56.278Z,16.85
2024-05-09T12:27:28.443Z,20.02
2024-05-09T12:30:00.807Z,17.55
2024-05-09T12:32:32.810Z,27.27
2024-05-09T12:35:03.800Z,17.73
2024-05-09T12:37:35.901Z,21.05
2024-05-09T12:40:15.816Z,21.27
2024-05-09T12:42:52.127Z,13.80
2024-05-09T12:45:23.693Z,17.98
2024-05-09T12:47:54.732Z,18.88
2024-05-09T12:50:32.471Z,17.13
2024-05-09T12:53:05.508Z,23.27
2024-05-09T12:55:48.373Z,26.55
2024-05-09T12:58:25.192Z,22.20
2024-05-09T13:00:56.685Z,19.73
2024-05-09T13:03:29.228Z,22.77
2024-05-09T13:06:00.789Z,17.13
2024-05-09T13:08:31.727Z,18.85
2024-05-09T13:11:03.845Z,21.45
2024-05-09T13:13:35.507Z,25.88
2024-05-09T13:16:07.089Z,19.63
2024-05-09T13:18:38.640Z,19.85
2024-05-09T13:21:09.847Z,27.48
2024-05-09T13:23:42.454Z,20.88
2024-05-09T13:28:45.056Z,21.98
2024-05-09T13:31:16.718Z,25.02
2024-05-09T13:33:48.961Z,24.25
2024-05-09T13:36:20.817Z,28.10
2024-05-09T13:38:52.161Z,21.48
2024-05-09T13:41:27.937Z,21.65
2024-05-09T13:43:59.121Z,27.20
2024-05-09T13:46:30.905Z,26.60
2024-05-09T13:49:02.357Z,31.80
2024-05-09T13:51:33.809Z,19.48
2024-05-09T13:54:04.856Z,25.30
2024-05-09T13:56:39.669Z,21.30
2024-05-09T13:59:11.808Z,25.85
2024-05-09T14:01:43.568Z,28.42
2024-05-09T14:04:18.438Z,33.00
2024-05-09T14:06:53.761Z,31.33
2024-05-09T14:09:31.869Z,31.42
2024-05-09T14:12:09.729Z,24.50
2024-05-09T14:14:42.516Z,35.28
2024-05-09T14:17:15.176Z,27.65
2024-05-09T14:19:47.398Z,37.28
2024-05-09T14:22:18.859Z,31.45
2024-05-09T14:24:51.327Z,32.85
2024-05-09T14:27:22.843Z,39.45
2024-05-09T14:29:54.289Z,36.72
2024-05-09T14:32:25.908Z,41.65
2024-05-09T14:35:00.928Z,42.53
2024-05-09T14:37:32.055Z,35.47
2024-05-09T14:40:06.893Z,46.33
2024-05-09T14:42:40.050Z,43.03
2024-05-09T14:47:46.301Z,31.27
2024-05-09T14:50:27.378Z,42.17
2024-05-09T14:53:05.352Z,44.22
2024-05-09T14:55:38.446Z,45.47
2024-05-09T14:58:16.766Z,43.45
2024-05-09T15:00:51.182Z,48.30
2024-05-09T15:03:30.628Z,42.63
2024-05-09T15:06:03.363Z,41.10
2024-05-09T15:08:34.711Z,36.75
2024-05-09T15:11:10.846Z,35.90
2024-05-09T15:13:43.314Z,44.92
2024-05-09T15:16:20.234Z,45.17
2024-05-09T15:18:52.794Z,46.70
2024-05-09T15:21:24.285Z,43.70
2024-05-09T15:23:55.610Z,42.95
2024-05-09T15:26:28.063Z,32.25
2024-05-09T15:28:59.889Z,35.65
2024-05-09T15:31:34.409Z,30.38
2024-05-09T15:34:05.939Z,33.17
2024-05-09T15:36:41.159Z,33.65
2024-05-09T15:39:19.432Z,45.03
2024-05-09T15:41:50.594Z,41.78
2024-05-09T15:44:22.202Z,35.83
2024-05-09T15:46:57.367Z,36.40
2024-05-09T15:49:28.618Z,39.28
2024-05-09T15:52:01.194Z,40.40
2024-05-09T15:54:32.386Z,36.20
2024-05-09T15:57:04.119Z,36.15
2024-05-09T15:59:35.805Z,26.85
2024-05-09T16:02:08.074Z,32.50
2024-05-09T16:04:39.985Z,40.53
2024-05-09T16:07:11.979Z,31.58
2024-05-09T16:09:43.305Z,32.90
2024-05-09T16:12:15.021Z,31.05
2024-05-09T16:14:48.632Z,25.67
2024-05-09T16:17:22.631Z,36.38
2024-05-09T16:22:25.159Z,46.42
2024-05-09T16:24:56.249Z,32.45
2024-05-09T16:27:30.047Z,39.70
2024-05-09T16:30:07.276Z,37.80
2024-05-09T16:32:45.966Z,30.20
2024-05-09T16:35:17.669Z,30.63
2024-05-09T16:37:49.743Z,33.42
2024-05-09T16:40:30.378Z,36.58
2024-05-09T16:43:09.190Z,40.08
2024-05-09T16:45:43.048Z,38.30
2024-05-09T16:50:46.929Z,49.20
2024-05-09T16:53:19.371Z,37.47
2024-05-09T16:55:50.730Z,39.22
2024-05-09T16:58:22.158Z,28.40
2024-05-09T17:00:53.406Z,35.38
2024-05-09T17:03:25.638Z,37.35
2024-05-09T17:05:56.919Z,31.38
2024-05-09T17:08:28.123Z,38.67
2024-05-09T17:11:02.850Z,31.92
2024-05-09T17:13:34.353Z,37.17
2024-05-09T17:16:05.910Z,33.20
2024-05-09T17:18:39.170Z,38.75
2024-05-09T17:21:10.470Z,33.92
2024-05-09T17:23:42.337Z,34.72
2024-05-09T17:26:13.793Z,27.98
2024-05-09T17:28:46.000Z,36.60
2024-05-09T17:31:17.050Z,33.00
2024-05-09T17:33:51.871Z,27.83
2024-05-09T17:36:24.885Z,34.97
2024-05-09T17:38:56.759Z,31.40
2024-05-09T17:41:28.220Z,25.38
2024-05-09T17:43:59.401Z,35.17
2024-05-09T17:46:30.786Z,34.42
2024-05-09T17:49:02.575Z,33.38
2024-05-09T17:51:39.999Z,31.25
2024-05-09T17:54:14.534Z,30.70
2024-05-09T17:56:46.071Z,35.38
2024-05-09T17:59:17.471Z,26.15
2024-05-09T18:01:48.751Z,34.63
2024-05-09T18:04:21.128Z,41.70
2024-05-09T18:06:52.216Z,26.87
2024-05-09T18:09:23.575Z,25.35
2024-05-09T18:11:54.598Z,32.38
2024-05-09T18:14:25.703Z,27.20
2024-05-09T18:16:56.624Z,31.70
2024-05-09T18:19:27.863Z,24.33
2024-05-09T18:21:59.008Z,23.73
2024-05-09T18:24:31.495Z,35.00
2024-05-09T18:27:02.216Z,30.67
2024-05-09T18:29:34.195Z,27.88
2024-05-09T18:32:05.040Z,28.33
2024-05-09T18:34:36.231Z,29.55
2024-05-09T18:37:07.441Z,29.90
2024-05-09T18:39:38.637Z,26.75
2024-05-09T18:42:10.296Z,33.88
2024-05-09T18:44:41.049Z,31.23
2024-05-09T18:47:12.944Z,23.85
2024-05-09T18:49:44.683Z,28.02
2024-05-09T18:52:16.116Z,30.08
2024-05-09T18:54:46.970Z,34.35
2024-05-09T18:57:17.537Z,39.33
2024-05-09T18:59:48.333Z,24.50
2024-05-09T19:02:19.479Z,30.10
2024-05-09T19:04:54.652Z,33.08
2024-05-09T19:07:25.745Z,32.05
2024-05-09T19:09:56.610Z,31.08
2024-05-09T19:12:27.443Z,25.15
2024-05-09T19:14:58.310Z,32.78
2024-05-09T19:17:31.363Z,31.10
2024-05-09T19:20:02.829Z,27.95
2024-05-09T19:22:34.134Z,25.23
2024-05-09T19:25:05.282Z,26.10
2024-05-09T19:27:36.057Z,36.80
2024-05-09T19:30:17.392Z,28.50
2024-05-09T19:32:55.192Z,27.23
2024-05-09T19:35:26.796Z,26.00
2024-05-09T19:37:57.532Z,26.30
2024-05-09T19:40:32.078Z,25.80
2024-05-09T19:43:05.956Z,28.13
2024-05-09T19:45:37.668Z,28.27
2024-05-09T19:48:09.133Z,26.85
2024-05-09T19:50:43.615Z,33.08
2024-05-09T19:53:15.963Z,33.67
2024-05-09T19:55:46.845Z,31.15
2024-05-09T19:58:17.940Z,23.95
2024-05-09T20:00:49.543Z,30.02
2024-05-09T20:03:20.855Z,25.05
2024-05-09T20:05:51.712Z,27.10
2024-05-09T20:08:22.473Z,24.75
2024-05-09T20:10:53.436Z,25.42
2024-05-09T20:13:24.557Z,23.13
2024-05-09T20:15:55.485Z,23.17
2024-05-09T20:18:26.477Z,24.17
2024-05-09T20:20:57.868Z,25.80
2024-05-09T20:23:28.756Z,32.42
2024-05-09T20:26:00.267Z,23.33
2024-05-09T20:28:31.744Z,34.40
2024-05-09T20:31:04.811Z,29.75
2024-05-09T20:33:35.442Z,28.10
2024-05-09T20:36:07.719Z,23.42
2024-05-09T20:38:38.288Z,23.67
2024-05-09T20:41:09.137Z,24.08
2024-05-09T20:43:39.915Z,27.38
2024-05-09T20:46:11.062Z,31.67
2024-05-09T20:48:42.113Z,30.08
2024-05-09T20:51:13.152Z,26.10
2024-05-09T20:53:44.156Z,25.13
2024-05-09T20:56:14.723Z,25.98
2024-05-09T20:58:49.286Z,26.67
2024-05-09T21:01:21.675Z,32.22
2024-05-09T21:03:52.835Z,25.20
2024-05-09T21:06:23.877Z,24.80
2024-05-09T21:08:55.664Z,22.25
2024-05-09T21:11:26.664Z,23.15
2024-05-09T21:13:57.580Z,21.52
2024-05-09T21:16:28.343Z,26.77
2024-05-09T21:18:59.572Z,18.35
2024-05-09T21:21:30.141Z,17.98
2024-05-09T21:24:01.746Z,27.45
2024-05-09T21:26:32.310Z,30.45
2024-05-09T21:29:03.111Z,19.58
2024-05-09T21:31:34.079Z,22.48
2024-05-09T21:34:05.076Z,22.65
2024-05-09T21:36:35.774Z,22.13
2024-05-09T21:39:06.566Z,22.20
2024-05-09T21:41:37.290Z,22.50
2024-05-09T21:44:08.519Z,24.15
2024-05-09T21:46:39.490Z,21.05
2024-05-09T21:49:10.391Z,21.48
2024-05-09T21:51:41.314Z,20.40
2024-05-09T21:54:12.263Z,24.58
2024-05-09T21:56:43.207Z,21.73
2024-05-09T21:59:13.646Z,22.92
2024-05-09T22:01:44.532Z,19.75
2024-05-09T22:04:15.514Z,29.42
2024-05-09T22:06:46.575Z,24.25
2024-05-09T22:09:17.867Z,22.33
2024-05-09T22:11:51.418Z,20.55
2024-05-09T22:14:23.349Z,22.65
2024-05-09T22:16:54.214Z,21.00
2024-05-09T22:19:25.117Z,20.90
2024-05-09T22:21:56.928Z,30.40
2024-05-09T22:24:27.676Z,30.17
2024-05-09T22:26:58.726Z,23.13
2024-05-09T22:29:29.373Z,23.13
2024-05-09T22:32:00.277Z,19.98
2024-05-09T22:34:31.318Z,23.88
2024-05-09T22:37:02.370Z,22.55
2024-05-09T22:39:33.499Z,23.58
2024-05-09T22:42:04.202Z,21.50
2024-05-09T22:44:35.613Z,22.30
2024-05-09T22:47:07.010Z,16.38
2024-05-09T22:49:37.847Z,27.38
2024-05-09T22:52:09.497Z,21.45
2024-05-09T22:54:40.289Z,17.58
2024-05-09T22:57:11.725Z,20.92
2024-05-09T22:59:42.488Z,21.52
2024-05-09T23:02:13.544Z,25.35
2024-05-09T23:04:44.529Z,15.85
2024-05-09T23:07:15.590Z,20.58
2024-05-09T23:09:50.097Z,24.83
2024-05-09T23:12:21.015Z,20.60
2024-05-09T23:14:51.831Z,23.42
2024-05-09T23:17:22.800Z,22.80
2024-05-09T23:19:53.652Z,20.45
2024-05-09T23:22:24.741Z,25.25
2024-05-09T23:24:55.840Z,18.65
2024-05-09T23:27:27.707Z,19.52
2024-05-09T23:29:58.903Z,20.30
2024-05-09T23:32:30.000Z,24.20
2024-05-09T23:35:01.742Z,17.20
2024-05-09T23:37:32.745Z,21.40
2024-05-09T23:40:06.891Z,21.60
2024-05-09T23:42:38.050Z,22.20
2024-05-09T23:45:09.715Z,21.48
2024-05-09T23:47:40.817Z,24.52
2024-05-09T23:50:16.918Z,19.88
2024-05-09T23:52:54.431Z,19.80
2024-05-09T23:55:25.566Z,27.10
2024-05-09T23:57:56.479Z,25.13
